< Typhoon 200707 2007 Season Typhoon 200709 >
Typhoon 200708 (SEPAT)
General InformationTrack Information on Google MapsDetailed Wind InformationAccess Analytics MapList of All Images || NewsDisaster Info.WeblogTrackbackTyphoon FrontResourceGoogle EarthGE AnimationAtom FeedGeoJSON
Detalied Best Track (Time Zone = UTC)
Year Month Day Hour Lat. Long. Pressure (hPa) Wind (kt) Class Image Chart
2007 8 12 00 17.6 135.8 1006 0 2 Image Chart
2007 8 12 06 17.3 135.6 1004 0 2 Image Chart
2007 8 12 12 17.2 135.5 1002 0 2 Image Chart
2007 8 12 18 17.1 135.1 998 35 3 Image Chart
2007 8 13 00 16.9 134.4 992 40 3 Image Chart
2007 8 13 06 16.6 133.8 985 50 4 Image Chart
2007 8 13 12 16.5 133.1 980 55 4 Image Chart
2007 8 13 18 16.5 132.4 975 60 4 Image Chart
2007 8 14 00 16.4 131.6 965 70 5 Image Chart
2007 8 14 06 16.2 130.7 955 75 5 Image Chart
2007 8 14 12 15.8 130.0 950 80 5 Image Chart
2007 8 14 18 15.7 129.2 945 85 5 Image Chart
2007 8 15 00 15.6 128.7 935 95 5 Image Chart
2007 8 15 06 15.7 128.1 930 95 5 Image Chart
2007 8 15 12 16.0 127.8 920 100 5 Image Chart
2007 8 15 18 16.7 127.2 915 105 5 Image Chart
2007 8 16 00 17.3 126.5 910 110 5 Image Chart
2007 8 16 06 17.9 126.1 910 110 5 Image Chart
2007 8 16 12 18.7 125.6 910 110 5 Image Chart
2007 8 16 18 19.4 124.8 910 110 5 Image Chart
2007 8 17 00 20.4 124.2 920 100 5 Image Chart
2007 8 17 06 21.0 123.3 920 100 5 Image Chart
2007 8 17 09 21.4 123.2 920 100 5 Image Chart
2007 8 17 12 21.8 122.9 930 95 5 Image Chart
2007 8 17 15 22.2 122.5 930 95 5 Image Chart
2007 8 17 18 22.7 122.0 940 90 5 Image Chart
2007 8 17 21 23.0 121.5 950 80 5 Image Chart
2007 8 18 00 23.7 120.7 970 65 5 Image Chart
2007 8 18 03 23.7 120.3 975 60 4 Image Chart
2007 8 18 06 24.0 119.9 980 55 4 Image Chart
2007 8 18 12 24.4 119.5 980 55 4 Image Chart
2007 8 18 18 24.8 119.0 985 50 4 Image Chart
2007 8 19 00 25.2 118.5 990 45 3 Image Chart
2007 8 19 06 25.6 118.3 992 40 3 Image Chart
2007 8 19 12 26.1 118.0 996 0 2 Image Chart
2007 8 19 18 27.0 117.8 996 0 2 Image Chart
2007 8 20 00 27.0 117.0 998 0 2 Image Chart
2007 8 20 06 27.5 116.7 998 0 2 Image Chart
2007 8 20 12 27.8 116.0 1000 0 2 Image Chart
2007 8 20 18 27.9 115.3 1000 0 2 Image Chart
2007 8 21 00 27.9 115.0 1000 0 2 Image Chart
2007 8 21 06 27.8 114.7 1000 0 2 Image Chart
2007 8 21 12 27.8 114.5 1000 0 2 Image Chart
2007 8 21 18 27.8 114.0 1000 0 2 Image Chart
2007 8 22 00 27.7 113.7 1000 0 2 Image Chart
2007 8 22 06 27.8 113.2 1000 0 2 Image Chart
2007 8 22 12 28.0 112.6 1002 0 2 Image Chart
2007 8 22 18 28.1 111.6 1002 0 2 Image Chart
2007 8 23 00 28.3 110.1 1004 0 2 Image Chart
2007 8 23 06 28.1 108.9 1002 0 2 Image Chart
2007 8 23 12 27.6 107.7 1004 0 2 Image Chart
2007 8 23 18 26.6 107.0 1004 0 2 Image Chart
2007 8 24 00 25.8 106.5 1006 0 2 Image Chart
2007 8 24 06 25.0 106.0 1006 0 2 Image Chart
Japan Meteorological Agency Best Track Data | Correction Date : 2007-10-03
< Typhoon 200707 2007 Season Typhoon 200709 >

Help